sensor_id;sensor_type;location;lat;lon;timestamp;pressure;altitude;pressure_sealevel;temperature;humidity
48027;BME280;50714;49.208;5.364;2022-10-16T00:02:16;99153.44;;;15.72;93.43
48027;BME280;50714;49.208;5.364;2022-10-16T00:12:16;99143.06;;;15.68;93.14
48027;BME280;50714;49.208;5.364;2022-10-16T00:22:16;99146.00;;;15.67;92.79
48027;BME280;50714;49.208;5.364;2022-10-16T00:32:18;99137.28;;;15.65;92.49
48027;BME280;50714;49.208;5.364;2022-10-16T00:42:18;99153.00;;;15.63;92.37
48027;BME280;50714;49.208;5.364;2022-10-16T00:52:19;99177.50;;;15.63;92.36
48027;BME280;50714;49.208;5.364;2022-10-16T01:02:20;99164.38;;;15.60;92.24
48027;BME280;50714;49.208;5.364;2022-10-16T01:12:46;99170.91;;;15.59;92.59
48027;BME280;50714;49.208;5.364;2022-10-16T01:33:01;99188.41;;;15.51;93.09
48027;BME280;50714;49.208;5.364;2022-10-16T01:43:09;99187.81;;;15.49;93.58
48027;BME280;50714;49.208;5.364;2022-10-16T01:53:13;99158.88;;;15.43;93.48
48027;BME280;50714;49.208;5.364;2022-10-16T02:03:18;99169.97;;;15.42;93.92
48027;BME280;50714;49.208;5.364;2022-10-16T02:13:25;99184.16;;;15.44;94.12
48027;BME280;50714;49.208;5.364;2022-10-16T02:23:36;99177.66;;;15.45;94.11
48027;BME280;50714;49.208;5.364;2022-10-16T02:33:42;99167.84;;;15.44;93.90
48027;BME280;50714;49.208;5.364;2022-10-16T02:43:45;99183.00;;;15.40;94.03
48027;BME280;50714;49.208;5.364;2022-10-16T02:53:45;99172.03;;;15.34;94.22
48027;BME280;50714;49.208;5.364;2022-10-16T03:03:46;99181.59;;;15.37;94.45
48027;BME280;50714;49.208;5.364;2022-10-16T03:13:46;99203.69;;;15.41;94.51
48027;BME280;50714;49.208;5.364;2022-10-16T03:23:46;99190.44;;;15.44;94.49
48027;BME280;50714;49.208;5.364;2022-10-16T03:33:47;99189.38;;;15.45;94.50
48027;BME280;50714;49.208;5.364;2022-10-16T03:43:47;99201.41;;;15.49;94.59
48027;BME280;50714;49.208;5.364;2022-10-16T03:53:47;99190.53;;;15.49;94.47
48027;BME280;50714;49.208;5.364;2022-10-16T04:03:48;99204.38;;;15.48;94.85
48027;BME280;50714;49.208;5.364;2022-10-16T04:13:48;99211.22;;;15.50;94.81
48027;BME280;50714;49.208;5.364;2022-10-16T04:23:48;99212.88;;;15.51;94.61
48027;BME280;50714;49.208;5.364;2022-10-16T04:33:49;99221.28;;;15.50;94.74
48027;BME280;50714;49.208;5.364;2022-10-16T04:43:49;99219.38;;;15.50;94.77
48027;BME280;50714;49.208;5.364;2022-10-16T04:53:50;99222.34;;;15.49;94.82
48027;BME280;50714;49.208;5.364;2022-10-16T05:03:50;99233.72;;;15.46;94.97
48027;BME280;50714;49.208;5.364;2022-10-16T05:13:51;99243.75;;;15.45;95.15
48027;BME280;50714;49.208;5.364;2022-10-16T05:23:53;99241.28;;;15.44;95.45
48027;BME280;50714;49.208;5.364;2022-10-16T05:33:58;99248.84;;;15.42;95.56
48027;BME280;50714;49.208;5.364;2022-10-16T05:43:59;99242.81;;;15.40;95.61
48027;BME280;50714;49.208;5.364;2022-10-16T05:53:59;99253.69;;;15.40;95.78
48027;BME280;50714;49.208;5.364;2022-10-16T06:04:01;99263.50;;;15.41;96.05
48027;BME280;50714;49.208;5.364;2022-10-16T06:14:02;99279.81;;;15.41;96.18
48027;BME280;50714;49.208;5.364;2022-10-16T06:24:06;99275.81;;;15.43;96.42
48027;BME280;50714;49.208;5.364;2022-10-16T06:34:09;99285.13;;;15.47;96.53
48027;BME280;50714;49.208;5.364;2022-10-16T06:44:10;99308.91;;;15.52;96.48
48027;BME280;50714;49.208;5.364;2022-10-16T06:54:11;99327.03;;;15.58;96.43
48027;BME280;50714;49.208;5.364;2022-10-16T07:04:11;99352.66;;;15.62;96.16
48027;BME280;50714;49.208;5.364;2022-10-16T07:14:17;99351.59;;;15.63;96.41
48027;BME280;50714;49.208;5.364;2022-10-16T07:24:18;99374.53;;;15.67;96.38
48027;BME280;50714;49.208;5.364;2022-10-16T07:34:19;99382.81;;;15.72;96.38
48027;BME280;50714;49.208;5.364;2022-10-16T07:44:21;99397.13;;;15.79;96.61
48027;BME280;50714;49.208;5.364;2022-10-16T07:54:22;99418.75;;;15.86;96.53
48027;BME280;50714;49.208;5.364;2022-10-16T08:04:22;99438.63;;;15.98;96.83
48027;BME280;50714;49.208;5.364;2022-10-16T08:14:22;99440.69;;;16.08;96.79
48027;BME280;50714;49.208;5.364;2022-10-16T08:24:23;99444.59;;;16.12;96.91
48027;BME280;50714;49.208;5.364;2022-10-16T08:34:23;99454.78;;;16.16;96.63
48027;BME280;50714;49.208;5.364;2022-10-16T08:55:43;99460.09;;;16.91;96.38
48027;BME280;50714;49.208;5.364;2022-10-16T09:25:48;99473.50;;;17.93;93.51
48027;BME280;50714;49.208;5.364;2022-10-16T09:35:51;99479.22;;;17.75;93.46
48027;BME280;50714;49.208;5.364;2022-10-16T09:45:59;99499.22;;;17.81;93.53
48027;BME280;50714;49.208;5.364;2022-10-16T09:56:00;99501.88;;;17.92;93.46
48027;BME280;50714;49.208;5.364;2022-10-16T10:06:14;99493.56;;;18.04;92.89
48027;BME280;50714;49.208;5.364;2022-10-16T10:16:23;99477.50;;;18.08;92.54
48027;BME280;50714;49.208;5.364;2022-10-16T10:26:26;99476.41;;;18.09;92.61
48027;BME280;50714;49.208;5.364;2022-10-16T10:46:41;99466.13;;;17.94;92.69
48027;BME280;50714;49.208;5.364;2022-10-16T11:07:00;99471.84;;;18.14;92.78
48027;BME280;50714;49.208;5.364;2022-10-16T11:17:15;99464.50;;;18.36;93.29
48027;BME280;50714;49.208;5.364;2022-10-16T11:27:25;99471.56;;;18.81;93.41
48027;BME280;50714;49.208;5.364;2022-10-16T11:37:32;99469.91;;;19.07;91.37
48027;BME280;50714;49.208;5.364;2022-10-16T11:47:35;99458.22;;;19.12;88.46
48027;BME280;50714;49.208;5.364;2022-10-16T11:57:51;99452.56;;;19.23;90.40
48027;BME280;50714;49.208;5.364;2022-10-16T12:08:10;99450.13;;;19.27;89.60
48027;BME280;50714;49.208;5.364;2022-10-16T12:18:24;99445.13;;;19.19;88.64
48027;BME280;50714;49.208;5.364;2022-10-16T12:28:30;99441.50;;;19.08;90.37
48027;BME280;50714;49.208;5.364;2022-10-16T12:38:46;99449.44;;;19.10;90.06
48027;BME280;50714;49.208;5.364;2022-10-16T12:48:46;99429.97;;;19.06;90.42
48027;BME280;50714;49.208;5.364;2022-10-16T13:29:33;99419.72;;;19.55;89.98
48027;BME280;50714;49.208;5.364;2022-10-16T13:39:34;99415.63;;;19.63;89.57
48027;BME280;50714;49.208;5.364;2022-10-16T13:49:34;99403.59;;;19.64;89.48
48027;BME280;50714;49.208;5.364;2022-10-16T13:59:36;99400.59;;;19.65;89.16
48027;BME280;50714;49.208;5.364;2022-10-16T14:09:40;99409.44;;;19.78;89.16
48027;BME280;50714;49.208;5.364;2022-10-16T14:19:46;99403.09;;;19.72;88.64
48027;BME280;50714;49.208;5.364;2022-10-16T14:29:47;99381.13;;;19.62;89.21
48027;BME280;50714;49.208;5.364;2022-10-16T14:39:51;99387.88;;;19.49;89.99
48027;BME280;50714;49.208;5.364;2022-10-16T14:49:52;99386.50;;;19.47;90.38
48027;BME280;50714;49.208;5.364;2022-10-16T14:59:55;99387.16;;;19.59;89.98
48027;BME280;50714;49.208;5.364;2022-10-16T15:09:56;99390.28;;;19.35;90.31
48027;BME280;50714;49.208;5.364;2022-10-16T15:19:57;99381.63;;;19.17;90.05
48027;BME280;50714;49.208;5.364;2022-10-16T15:29:59;99387.25;;;19.00;90.58
48027;BME280;50714;49.208;5.364;2022-10-16T15:39:59;99397.28;;;18.89;91.07
48027;BME280;50714;49.208;5.364;2022-10-16T15:49:59;99389.25;;;18.78;91.50
48027;BME280;50714;49.208;5.364;2022-10-16T16:00:00;99393.78;;;18.67;91.82
48027;BME280;50714;49.208;5.364;2022-10-16T16:10:01;99402.69;;;18.57;92.36
48027;BME280;50714;49.208;5.364;2022-10-16T16:20:03;99392.19;;;18.49;92.69
48027;BME280;50714;49.208;5.364;2022-10-16T16:30:06;99388.88;;;18.42;93.28
48027;BME280;50714;49.208;5.364;2022-10-16T16:40:07;99393.13;;;18.33;93.98
48027;BME280;50714;49.208;5.364;2022-10-16T16:50:07;99417.34;;;18.24;94.61
48027;BME280;50714;49.208;5.364;2022-10-16T17:00:08;99402.75;;;18.14;94.87
48027;BME280;50714;49.208;5.364;2022-10-16T17:10:09;99416.00;;;18.05;95.51
48027;BME280;50714;49.208;5.364;2022-10-16T17:20:10;99427.13;;;17.98;95.95
48027;BME280;50714;49.208;5.364;2022-10-16T17:30:10;99436.91;;;17.94;96.77
48027;BME280;50714;49.208;5.364;2022-10-16T17:40:11;99444.19;;;17.89;96.55
48027;BME280;50714;49.208;5.364;2022-10-16T17:50:11;99461.66;;;17.88;96.59
48027;BME280;50714;49.208;5.364;2022-10-16T18:00:12;99466.78;;;17.84;96.71
48027;BME280;50714;49.208;5.364;2022-10-16T18:10:12;99467.28;;;17.81;96.21
48027;BME280;50714;49.208;5.364;2022-10-16T18:20:13;99474.81;;;17.74;96.49
48027;BME280;50714;49.208;5.364;2022-10-16T18:30:13;99486.66;;;17.63;96.53
48027;BME280;50714;49.208;5.364;2022-10-16T18:40:14;99500.44;;;17.56;96.67
48027;BME280;50714;49.208;5.364;2022-10-16T18:50:14;99496.56;;;17.52;96.85
48027;BME280;50714;49.208;5.364;2022-10-16T19:00:15;99491.94;;;17.36;96.15
48027;BME280;50714;49.208;5.364;2022-10-16T19:10:15;99500.50;;;17.11;96.05
48027;BME280;50714;49.208;5.364;2022-10-16T19:20:16;99512.47;;;16.93;96.32
48027;BME280;50714;49.208;5.364;2022-10-16T19:30:17;99509.44;;;16.78;96.67
48027;BME280;50714;49.208;5.364;2022-10-16T19:40:18;99508.66;;;16.66;96.76
48027;BME280;50714;49.208;5.364;2022-10-16T19:50:18;99508.53;;;16.61;97.62
48027;BME280;50714;49.208;5.364;2022-10-16T20:00:18;99501.66;;;16.58;97.60
48027;BME280;50714;49.208;5.364;2022-10-16T20:10:19;99510.91;;;16.57;97.96
48027;BME280;50714;49.208;5.364;2022-10-16T20:20:19;99516.34;;;16.57;98.23
48027;BME280;50714;49.208;5.364;2022-10-16T20:30:20;99519.91;;;16.58;98.43
48027;BME280;50714;49.208;5.364;2022-10-16T20:40:20;99536.59;;;16.61;98.39
48027;BME280;50714;49.208;5.364;2022-10-16T20:50:22;99532.72;;;16.69;99.06
48027;BME280;50714;49.208;5.364;2022-10-16T21:00:23;99542.66;;;16.75;98.64
48027;BME280;50714;49.208;5.364;2022-10-16T21:10:23;99547.50;;;16.73;98.09
48027;BME280;50714;49.208;5.364;2022-10-16T21:20:23;99547.63;;;16.66;98.50
48027;BME280;50714;49.208;5.364;2022-10-16T21:30:24;99563.63;;;16.63;98.36
48027;BME280;50714;49.208;5.364;2022-10-16T21:40:24;99562.56;;;16.64;98.40
48027;BME280;50714;49.208;5.364;2022-10-16T21:50:25;99573.00;;;16.67;98.40
48027;BME280;50714;49.208;5.364;2022-10-16T22:00:25;99585.41;;;16.63;98.35
48027;BME280;50714;49.208;5.364;2022-10-16T22:10:26;99586.94;;;16.59;98.14
48027;BME280;50714;49.208;5.364;2022-10-16T22:20:26;99592.88;;;16.56;98.17
48027;BME280;50714;49.208;5.364;2022-10-16T22:30:26;99602.88;;;16.50;98.11
48027;BME280;50714;49.208;5.364;2022-10-16T22:40:27;99624.88;;;16.37;97.79
48027;BME280;50714;49.208;5.364;2022-10-16T22:50:27;99625.75;;;16.26;97.50
48027;BME280;50714;49.208;5.364;2022-10-16T23:00:28;99644.19;;;16.12;97.38
48027;BME280;50714;49.208;5.364;2022-10-16T23:10:28;99647.50;;;16.02;97.47
48027;BME280;50714;49.208;5.364;2022-10-16T23:20:29;99645.34;;;15.93;97.61
48027;BME280;50714;49.208;5.364;2022-10-16T23:30:29;99642.25;;;15.89;97.82
48027;BME280;50714;49.208;5.364;2022-10-16T23:40:29;99647.25;;;15.81;97.63
48027;BME280;50714;49.208;5.364;2022-10-16T23:50:30;99641.56;;;15.82;98.42
